sensor_id;sensor_type;location;lat;lon;timestamp;P1;durP1;ratioP1;P2;durP2;ratioP2
22924;SDS011;11628;51.072;3.712;2023-03-01T00:02:00;15.93;;;10.80;;
22924;SDS011;11628;51.072;3.712;2023-03-01T00:04:26;13.52;;;10.27;;
22924;SDS011;11628;51.072;3.712;2023-03-01T00:06:52;13.50;;;10.07;;
22924;SDS011;11628;51.072;3.712;2023-03-01T00:09:18;11.07;;;9.32;;
22924;SDS011;11628;51.072;3.712;2023-03-01T00:11:44;11.30;;;9.65;;
22924;SDS011;11628;51.072;3.712;2023-03-01T00:14:10;13.20;;;9.18;;
22924;SDS011;11628;51.072;3.712;2023-03-01T00:16:37;12.23;;;9.20;;
22924;SDS011;11628;51.072;3.712;2023-03-01T00:19:05;14.50;;;9.18;;
22924;SDS011;11628;51.072;3.712;2023-03-01T00:21:38;12.52;;;9.63;;
22924;SDS011;11628;51.072;3.712;2023-03-01T00:24:05;12.38;;;9.73;;
22924;SDS011;11628;51.072;3.712;2023-03-01T00:26:30;9.95;;;8.68;;
22924;SDS011;11628;51.072;3.712;2023-03-01T00:28:57;12.65;;;9.68;;
22924;SDS011;11628;51.072;3.712;2023-03-01T00:31:24;11.13;;;9.32;;
22924;SDS011;11628;51.072;3.712;2023-03-01T00:33:53;11.07;;;9.63;;
22924;SDS011;11628;51.072;3.712;2023-03-01T00:36:26;12.63;;;9.73;;
22924;SDS011;11628;51.072;3.712;2023-03-01T00:38:54;12.88;;;9.20;;
22924;SDS011;11628;51.072;3.712;2023-03-01T00:41:20;10.85;;;9.00;;
22924;SDS011;11628;51.072;3.712;2023-03-01T00:43:51;16.38;;;9.27;;
22924;SDS011;11628;51.072;3.712;2023-03-01T00:46:19;11.13;;;9.25;;
22924;SDS011;11628;51.072;3.712;2023-03-01T00:48:46;12.57;;;8.65;;
22924;SDS011;11628;51.072;3.712;2023-03-01T00:51:13;12.13;;;9.45;;
22924;SDS011;11628;51.072;3.712;2023-03-01T00:53:45;11.45;;;9.18;;
22924;SDS011;11628;51.072;3.712;2023-03-01T00:56:12;8.75;;;7.80;;
22924;SDS011;11628;51.072;3.712;2023-03-01T00:58:39;10.80;;;9.27;;
22924;SDS011;11628;51.072;3.712;2023-03-01T01:01:12;10.55;;;9.05;;
22924;SDS011;11628;51.072;3.712;2023-03-01T01:03:43;9.38;;;8.27;;
22924;SDS011;11628;51.072;3.712;2023-03-01T01:06:13;10.60;;;9.13;;
22924;SDS011;11628;51.072;3.712;2023-03-01T01:08:40;11.50;;;8.88;;
22924;SDS011;11628;51.072;3.712;2023-03-01T01:11:05;14.18;;;9.35;;
22924;SDS011;11628;51.072;3.712;2023-03-01T01:13:34;10.38;;;9.25;;
22924;SDS011;11628;51.072;3.712;2023-03-01T01:16:01;12.77;;;9.80;;
22924;SDS011;11628;51.072;3.712;2023-03-01T01:18:26;10.82;;;9.23;;
22924;SDS011;11628;51.072;3.712;2023-03-01T01:20:52;11.25;;;9.48;;
22924;SDS011;11628;51.072;3.712;2023-03-01T01:23:18;10.50;;;9.48;;
22924;SDS011;11628;51.072;3.712;2023-03-01T01:25:44;11.35;;;10.15;;
22924;SDS011;11628;51.072;3.712;2023-03-01T01:28:09;12.07;;;10.35;;
22924;SDS011;11628;51.072;3.712;2023-03-01T01:30:35;11.20;;;10.05;;
22924;SDS011;11628;51.072;3.712;2023-03-01T01:33:00;11.85;;;10.45;;
22924;SDS011;11628;51.072;3.712;2023-03-01T01:35:27;11.70;;;10.20;;
22924;SDS011;11628;51.072;3.712;2023-03-01T01:37:53;11.32;;;10.20;;
22924;SDS011;11628;51.072;3.712;2023-03-01T01:40:18;12.90;;;11.00;;
22924;SDS011;11628;51.072;3.712;2023-03-01T01:42:44;12.63;;;11.20;;
22924;SDS011;11628;51.072;3.712;2023-03-01T01:48:03;11.77;;;10.57;;
22924;SDS011;11628;51.072;3.712;2023-03-01T01:50:35;13.52;;;11.32;;
22924;SDS011;11628;51.072;3.712;2023-03-01T01:53:08;14.48;;;12.00;;
22924;SDS011;11628;51.072;3.712;2023-03-01T01:55:38;14.35;;;12.68;;
22924;SDS011;11628;51.072;3.712;2023-03-01T01:58:08;13.57;;;12.18;;
22924;SDS011;11628;51.072;3.712;2023-03-01T02:00:36;14.35;;;12.32;;
22924;SDS011;11628;51.072;3.712;2023-03-01T02:03:12;14.15;;;12.52;;
22924;SDS011;11628;51.072;3.712;2023-03-01T02:05:54;14.55;;;12.70;;
22924;SDS011;11628;51.072;3.712;2023-03-01T02:08:27;14.82;;;12.80;;
22924;SDS011;11628;51.072;3.712;2023-03-01T02:10:55;17.13;;;13.57;;
22924;SDS011;11628;51.072;3.712;2023-03-01T02:13:22;14.90;;;13.02;;
22924;SDS011;11628;51.072;3.712;2023-03-01T02:15:48;15.13;;;13.05;;
22924;SDS011;11628;51.072;3.712;2023-03-01T02:18:16;15.95;;;13.77;;
22924;SDS011;11628;51.072;3.712;2023-03-01T02:23:28;19.17;;;14.23;;
22924;SDS011;11628;51.072;3.712;2023-03-01T02:25:59;17.35;;;14.73;;
22924;SDS011;11628;51.072;3.712;2023-03-01T02:28:33;16.55;;;13.52;;
22924;SDS011;11628;51.072;3.712;2023-03-01T02:31:07;15.75;;;13.82;;
22924;SDS011;11628;51.072;3.712;2023-03-01T02:33:54;15.50;;;13.77;;
22924;SDS011;11628;51.072;3.712;2023-03-01T02:36:25;16.10;;;14.27;;
22924;SDS011;11628;51.072;3.712;2023-03-01T02:38:55;16.40;;;14.70;;
22924;SDS011;11628;51.072;3.712;2023-03-01T02:41:23;17.92;;;15.00;;
22924;SDS011;11628;51.072;3.712;2023-03-01T02:43:51;17.45;;;15.50;;
22924;SDS011;11628;51.072;3.712;2023-03-01T02:46:21;17.05;;;15.10;;
22924;SDS011;11628;51.072;3.712;2023-03-01T02:48:50;17.55;;;15.60;;
22924;SDS011;11628;51.072;3.712;2023-03-01T02:54:10;20.73;;;16.25;;
22924;SDS011;11628;51.072;3.712;2023-03-01T02:56:55;20.25;;;16.75;;
22924;SDS011;11628;51.072;3.712;2023-03-01T02:59:22;21.30;;;17.08;;
22924;SDS011;11628;51.072;3.712;2023-03-01T03:01:54;22.27;;;18.13;;
22924;SDS011;11628;51.072;3.712;2023-03-01T03:04:20;20.27;;;17.65;;
22924;SDS011;11628;51.072;3.712;2023-03-01T03:06:46;22.85;;;19.40;;
22924;SDS011;11628;51.072;3.712;2023-03-01T03:09:15;20.83;;;17.90;;
22924;SDS011;11628;51.072;3.712;2023-03-01T03:11:41;21.40;;;18.50;;
22924;SDS011;11628;51.072;3.712;2023-03-01T03:14:10;21.23;;;19.02;;
22924;SDS011;11628;51.072;3.712;2023-03-01T03:16:39;27.38;;;19.58;;
22924;SDS011;11628;51.072;3.712;2023-03-01T03:19:09;24.27;;;19.73;;
22924;SDS011;11628;51.072;3.712;2023-03-01T03:21:35;24.55;;;19.65;;
22924;SDS011;11628;51.072;3.712;2023-03-01T03:24:01;22.98;;;19.65;;
22924;SDS011;11628;51.072;3.712;2023-03-01T03:26:27;22.40;;;19.48;;
22924;SDS011;11628;51.072;3.712;2023-03-01T03:28:52;22.73;;;18.77;;
22924;SDS011;11628;51.072;3.712;2023-03-01T03:31:18;23.13;;;19.58;;
22924;SDS011;11628;51.072;3.712;2023-03-01T03:33:45;26.55;;;19.83;;
22924;SDS011;11628;51.072;3.712;2023-03-01T03:36:15;26.20;;;20.50;;
22924;SDS011;11628;51.072;3.712;2023-03-01T03:38:43;24.58;;;19.27;;
22924;SDS011;11628;51.072;3.712;2023-03-01T03:41:10;22.27;;;19.73;;
22924;SDS011;11628;51.072;3.712;2023-03-01T03:43:37;27.42;;;21.55;;
22924;SDS011;11628;51.072;3.712;2023-03-01T03:46:05;27.70;;;21.52;;
22924;SDS011;11628;51.072;3.712;2023-03-01T03:48:32;24.70;;;19.70;;
22924;SDS011;11628;51.072;3.712;2023-03-01T03:50:59;23.90;;;19.80;;
22924;SDS011;11628;51.072;3.712;2023-03-01T03:53:26;25.15;;;20.35;;
22924;SDS011;11628;51.072;3.712;2023-03-01T03:55:55;25.52;;;20.98;;
22924;SDS011;11628;51.072;3.712;2023-03-01T03:58:21;27.58;;;19.23;;
22924;SDS011;11628;51.072;3.712;2023-03-01T04:00:49;26.33;;;20.58;;
22924;SDS011;11628;51.072;3.712;2023-03-01T04:03:17;24.52;;;19.60;;
22924;SDS011;11628;51.072;3.712;2023-03-01T04:05:44;24.75;;;20.20;;
22924;SDS011;11628;51.072;3.712;2023-03-01T04:08:12;23.95;;;20.45;;
22924;SDS011;11628;51.072;3.712;2023-03-01T04:10:39;24.83;;;19.98;;
22924;SDS011;11628;51.072;3.712;2023-03-01T04:13:08;24.98;;;20.02;;
22924;SDS011;11628;51.072;3.712;2023-03-01T04:15:37;22.20;;;19.38;;
22924;SDS011;11628;51.072;3.712;2023-03-01T04:18:03;24.45;;;20.33;;
22924;SDS011;11628;51.072;3.712;2023-03-01T04:20:30;24.55;;;19.90;;
22924;SDS011;11628;51.072;3.712;2023-03-01T04:25:46;24.90;;;20.77;;
22924;SDS011;11628;51.072;3.712;2023-03-01T04:28:22;25.53;;;19.70;;
22924;SDS011;11628;51.072;3.712;2023-03-01T04:31:14;24.48;;;20.00;;
22924;SDS011;11628;51.072;3.712;2023-03-01T04:36:10;26.42;;;21.45;;
22924;SDS011;11628;51.072;3.712;2023-03-01T04:38:37;24.63;;;21.23;;
22924;SDS011;11628;51.072;3.712;2023-03-01T04:41:05;26.73;;;20.52;;
22924;SDS011;11628;51.072;3.712;2023-03-01T04:43:32;25.70;;;21.10;;
22924;SDS011;11628;51.072;3.712;2023-03-01T04:46:18;28.10;;;21.08;;
22924;SDS011;11628;51.072;3.712;2023-03-01T04:48:45;31.67;;;22.27;;
22924;SDS011;11628;51.072;3.712;2023-03-01T04:51:12;29.15;;;21.60;;
22924;SDS011;11628;51.072;3.712;2023-03-01T04:53:38;29.25;;;20.95;;
22924;SDS011;11628;51.072;3.712;2023-03-01T04:56:05;28.17;;;22.27;;
22924;SDS011;11628;51.072;3.712;2023-03-01T04:58:31;26.23;;;21.48;;
22924;SDS011;11628;51.072;3.712;2023-03-01T05:00:57;27.55;;;21.52;;
22924;SDS011;11628;51.072;3.712;2023-03-01T05:03:23;27.33;;;21.02;;
22924;SDS011;11628;51.072;3.712;2023-03-01T05:05:49;26.45;;;21.13;;
22924;SDS011;11628;51.072;3.712;2023-03-01T05:08:16;26.45;;;21.58;;
22924;SDS011;11628;51.072;3.712;2023-03-01T05:10:47;27.60;;;20.02;;
22924;SDS011;11628;51.072;3.712;2023-03-01T05:13:14;22.55;;;18.63;;
22924;SDS011;11628;51.072;3.712;2023-03-01T05:15:46;20.77;;;17.02;;
22924;SDS011;11628;51.072;3.712;2023-03-01T05:18:16;20.55;;;15.38;;
22924;SDS011;11628;51.072;3.712;2023-03-01T05:20:42;20.80;;;14.75;;
22924;SDS011;11628;51.072;3.712;2023-03-01T05:23:09;19.48;;;15.43;;
22924;SDS011;11628;51.072;3.712;2023-03-01T05:25:35;18.77;;;14.38;;
22924;SDS011;11628;51.072;3.712;2023-03-01T05:28:05;21.15;;;15.15;;
22924;SDS011;11628;51.072;3.712;2023-03-01T05:30:34;18.25;;;14.73;;
22924;SDS011;11628;51.072;3.712;2023-03-01T05:33:00;23.00;;;14.82;;
22924;SDS011;11628;51.072;3.712;2023-03-01T05:35:27;23.02;;;16.35;;
22924;SDS011;11628;51.072;3.712;2023-03-01T05:37:54;18.98;;;14.85;;
22924;SDS011;11628;51.072;3.712;2023-03-01T05:40:21;26.77;;;16.48;;
22924;SDS011;11628;51.072;3.712;2023-03-01T05:42:50;19.67;;;15.57;;
22924;SDS011;11628;51.072;3.712;2023-03-01T05:45:19;19.02;;;15.77;;
22924;SDS011;11628;51.072;3.712;2023-03-01T05:47:47;20.70;;;15.98;;
22924;SDS011;11628;51.072;3.712;2023-03-01T05:50:14;21.17;;;15.50;;
22924;SDS011;11628;51.072;3.712;2023-03-01T05:52:52;19.02;;;15.40;;
22924;SDS011;11628;51.072;3.712;2023-03-01T05:55:25;23.00;;;14.10;;
22924;SDS011;11628;51.072;3.712;2023-03-01T05:57:51;22.60;;;14.85;;
22924;SDS011;11628;51.072;3.712;2023-03-01T06:00:18;20.58;;;15.25;;
22924;SDS011;11628;51.072;3.712;2023-03-01T06:02:47;19.70;;;15.52;;
22924;SDS011;11628;51.072;3.712;2023-03-01T06:05:12;20.98;;;15.88;;
22924;SDS011;11628;51.072;3.712;2023-03-01T06:07:39;23.40;;;18.02;;
22924;SDS011;11628;51.072;3.712;2023-03-01T06:10:05;18.80;;;15.95;;
22924;SDS011;11628;51.072;3.712;2023-03-01T06:12:34;17.98;;;14.07;;
22924;SDS011;11628;51.072;3.712;2023-03-01T06:15:01;21.10;;;15.25;;
22924;SDS011;11628;51.072;3.712;2023-03-01T06:17:29;19.33;;;15.38;;
22924;SDS011;11628;51.072;3.712;2023-03-01T06:19:56;18.33;;;15.55;;
22924;SDS011;11628;51.072;3.712;2023-03-01T06:22:21;22.45;;;16.63;;
22924;SDS011;11628;51.072;3.712;2023-03-01T06:24:47;20.83;;;15.07;;
22924;SDS011;11628;51.072;3.712;2023-03-01T06:27:13;19.60;;;15.27;;
22924;SDS011;11628;51.072;3.712;2023-03-01T06:29:38;17.35;;;14.80;;
22924;SDS011;11628;51.072;3.712;2023-03-01T06:32:04;17.33;;;13.93;;
22924;SDS011;11628;51.072;3.712;2023-03-01T06:34:30;19.17;;;14.25;;
22924;SDS011;11628;51.072;3.712;2023-03-01T06:36:57;20.33;;;16.42;;
22924;SDS011;11628;51.072;3.712;2023-03-01T06:39:22;21.67;;;16.10;;
22924;SDS011;11628;51.072;3.712;2023-03-01T06:41:48;20.95;;;16.52;;
22924;SDS011;11628;51.072;3.712;2023-03-01T06:44:14;24.23;;;18.15;;
22924;SDS011;11628;51.072;3.712;2023-03-01T06:46:39;30.80;;;15.57;;
22924;SDS011;11628;51.072;3.712;2023-03-01T06:49:06;22.40;;;15.23;;
22924;SDS011;11628;51.072;3.712;2023-03-01T06:51:34;16.85;;;14.52;;
22924;SDS011;11628;51.072;3.712;2023-03-01T06:54:01;19.15;;;13.77;;
22924;SDS011;11628;51.072;3.712;2023-03-01T06:56:28;18.83;;;14.02;;
22924;SDS011;11628;51.072;3.712;2023-03-01T06:58:54;17.17;;;12.55;;
22924;SDS011;11628;51.072;3.712;2023-03-01T07:01:19;16.58;;;13.50;;
22924;SDS011;11628;51.072;3.712;2023-03-01T07:03:45;15.77;;;13.02;;
22924;SDS011;11628;51.072;3.712;2023-03-01T07:06:11;14.98;;;12.05;;
22924;SDS011;11628;51.072;3.712;2023-03-01T07:08:36;16.98;;;12.85;;
22924;SDS011;11628;51.072;3.712;2023-03-01T07:11:02;21.60;;;13.75;;
22924;SDS011;11628;51.072;3.712;2023-03-01T07:13:29;16.90;;;12.23;;
22924;SDS011;11628;51.072;3.712;2023-03-01T07:15:54;18.05;;;12.43;;
22924;SDS011;11628;51.072;3.712;2023-03-01T07:18:20;17.60;;;11.95;;
22924;SDS011;11628;51.072;3.712;2023-03-01T07:20:46;17.95;;;13.00;;
22924;SDS011;11628;51.072;3.712;2023-03-01T07:23:12;17.77;;;13.25;;
22924;SDS011;11628;51.072;3.712;2023-03-01T07:25:38;16.67;;;12.65;;
22924;SDS011;11628;51.072;3.712;2023-03-01T07:28:03;24.63;;;12.52;;
22924;SDS011;11628;51.072;3.712;2023-03-01T07:30:29;17.08;;;11.20;;
22924;SDS011;11628;51.072;3.712;2023-03-01T07:32:55;21.42;;;11.82;;
22924;SDS011;11628;51.072;3.712;2023-03-01T07:35:22;15.93;;;11.50;;
22924;SDS011;11628;51.072;3.712;2023-03-01T07:37:50;16.13;;;11.07;;
22924;SDS011;11628;51.072;3.712;2023-03-01T07:40:15;13.65;;;10.60;;
22924;SDS011;11628;51.072;3.712;2023-03-01T07:42:41;16.60;;;11.27;;
22924;SDS011;11628;51.072;3.712;2023-03-01T07:45:07;17.75;;;10.90;;
22924;SDS011;11628;51.072;3.712;2023-03-01T07:47:33;25.92;;;11.48;;
22924;SDS011;11628;51.072;3.712;2023-03-01T07:49:59;18.40;;;10.60;;
22924;SDS011;11628;51.072;3.712;2023-03-01T07:52:26;17.08;;;10.38;;
22924;SDS011;11628;51.072;3.712;2023-03-01T07:54:52;12.50;;;9.32;;
22924;SDS011;11628;51.072;3.712;2023-03-01T07:57:17;14.63;;;9.18;;
22924;SDS011;11628;51.072;3.712;2023-03-01T07:59:43;13.32;;;9.27;;
22924;SDS011;11628;51.072;3.712;2023-03-01T08:02:09;15.05;;;9.18;;
22924;SDS011;11628;51.072;3.712;2023-03-01T08:04:35;15.55;;;8.73;;
22924;SDS011;11628;51.072;3.712;2023-03-01T08:07:04;9.35;;;8.35;;
22924;SDS011;11628;51.072;3.712;2023-03-01T08:09:30;10.68;;;8.18;;
22924;SDS011;11628;51.072;3.712;2023-03-01T08:11:56;13.10;;;9.57;;
22924;SDS011;11628;51.072;3.712;2023-03-01T08:14:26;12.13;;;9.35;;
22924;SDS011;11628;51.072;3.712;2023-03-01T08:16:52;10.93;;;7.95;;
22924;SDS011;11628;51.072;3.712;2023-03-01T08:19:17;11.88;;;8.80;;
22924;SDS011;11628;51.072;3.712;2023-03-01T08:21:43;10.85;;;8.50;;
22924;SDS011;11628;51.072;3.712;2023-03-01T08:24:09;12.32;;;9.15;;
22924;SDS011;11628;51.072;3.712;2023-03-01T08:26:35;20.30;;;11.05;;
22924;SDS011;11628;51.072;3.712;2023-03-01T08:29:02;12.98;;;9.15;;
22924;SDS011;11628;51.072;3.712;2023-03-01T08:31:32;9.65;;;8.38;;
22924;SDS011;11628;51.072;3.712;2023-03-01T08:34:00;10.10;;;8.90;;
22924;SDS011;11628;51.072;3.712;2023-03-01T08:36:32;13.20;;;9.07;;
22924;SDS011;11628;51.072;3.712;2023-03-01T08:38:59;9.68;;;8.50;;
22924;SDS011;11628;51.072;3.712;2023-03-01T08:41:25;10.95;;;8.30;;
22924;SDS011;11628;51.072;3.712;2023-03-01T08:43:53;11.02;;;8.90;;
22924;SDS011;11628;51.072;3.712;2023-03-01T08:46:24;11.20;;;8.57;;
22924;SDS011;11628;51.072;3.712;2023-03-01T08:48:50;10.45;;;8.77;;
22924;SDS011;11628;51.072;3.712;2023-03-01T08:51:17;12.25;;;9.18;;
22924;SDS011;11628;51.072;3.712;2023-03-01T08:53:43;13.95;;;8.80;;
22924;SDS011;11628;51.072;3.712;2023-03-01T08:56:09;11.45;;;8.93;;
22924;SDS011;11628;51.072;3.712;2023-03-01T08:58:36;11.70;;;8.15;;
22924;SDS011;11628;51.072;3.712;2023-03-01T09:01:12;11.13;;;8.77;;
22924;SDS011;11628;51.072;3.712;2023-03-01T09:03:39;10.80;;;9.10;;
22924;SDS011;11628;51.072;3.712;2023-03-01T09:06:06;10.27;;;9.27;;
22924;SDS011;11628;51.072;3.712;2023-03-01T09:08:42;10.10;;;9.10;;
22924;SDS011;11628;51.072;3.712;2023-03-01T09:11:13;9.77;;;8.75;;
22924;SDS011;11628;51.072;3.712;2023-03-01T09:13:41;11.98;;;8.48;;
22924;SDS011;11628;51.072;3.712;2023-03-01T09:16:08;13.50;;;9.25;;
22924;SDS011;11628;51.072;3.712;2023-03-01T09:18:34;10.55;;;7.82;;
22924;SDS011;11628;51.072;3.712;2023-03-01T09:21:11;11.45;;;8.45;;
22924;SDS011;11628;51.072;3.712;2023-03-01T09:23:39;12.35;;;8.63;;
22924;SDS011;11628;51.072;3.712;2023-03-01T09:26:07;10.88;;;8.93;;
22924;SDS011;11628;51.072;3.712;2023-03-01T09:28:34;9.95;;;8.05;;
22924;SDS011;11628;51.072;3.712;2023-03-01T09:31:01;12.48;;;8.32;;
22924;SDS011;11628;51.072;3.712;2023-03-01T09:33:28;10.93;;;8.88;;
22924;SDS011;11628;51.072;3.712;2023-03-01T09:35:58;10.50;;;7.60;;
22924;SDS011;11628;51.072;3.712;2023-03-01T09:38:28;9.85;;;8.82;;
22924;SDS011;11628;51.072;3.712;2023-03-01T09:40:55;12.13;;;8.40;;
22924;SDS011;11628;51.072;3.712;2023-03-01T09:43:23;10.38;;;8.38;;
22924;SDS011;11628;51.072;3.712;2023-03-01T09:46:10;11.63;;;8.13;;
22924;SDS011;11628;51.072;3.712;2023-03-01T09:48:42;11.50;;;8.45;;
22924;SDS011;11628;51.072;3.712;2023-03-01T09:51:26;9.77;;;7.88;;
22924;SDS011;11628;51.072;3.712;2023-03-01T09:53:55;10.73;;;7.70;;
22924;SDS011;11628;51.072;3.712;2023-03-01T09:56:32;10.38;;;7.88;;
22924;SDS011;11628;51.072;3.712;2023-03-01T10:07:17;8.63;;;7.78;;
22924;SDS011;11628;51.072;3.712;2023-03-01T10:09:45;10.63;;;7.40;;
22924;SDS011;11628;51.072;3.712;2023-03-01T10:12:13;8.57;;;7.78;;
22924;SDS011;11628;51.072;3.712;2023-03-01T10:17:43;9.35;;;7.50;;
22924;SDS011;11628;51.072;3.712;2023-03-01T10:22:40;9.30;;;7.13;;
22924;SDS011;11628;51.072;3.712;2023-03-01T10:25:08;9.68;;;7.53;;
22924;SDS011;11628;51.072;3.712;2023-03-01T10:27:42;8.32;;;6.90;;
22924;SDS011;11628;51.072;3.712;2023-03-01T10:30:40;8.30;;;7.05;;
22924;SDS011;11628;51.072;3.712;2023-03-01T10:33:28;7.65;;;6.93;;
22924;SDS011;11628;51.072;3.712;2023-03-01T10:35:57;9.80;;;7.50;;
22924;SDS011;11628;51.072;3.712;2023-03-01T10:38:23;11.95;;;7.72;;
22924;SDS011;11628;51.072;3.712;2023-03-01T10:40:53;9.90;;;7.45;;
22924;SDS011;11628;51.072;3.712;2023-03-01T10:43:22;7.50;;;6.43;;
22924;SDS011;11628;51.072;3.712;2023-03-01T10:45:52;17.30;;;7.32;;
22924;SDS011;11628;51.072;3.712;2023-03-01T10:51:06;8.05;;;7.05;;
22924;SDS011;11628;51.072;3.712;2023-03-01T10:53:33;8.68;;;6.95;;
22924;SDS011;11628;51.072;3.712;2023-03-01T10:56:04;7.07;;;6.38;;
22924;SDS011;11628;51.072;3.712;2023-03-01T10:58:34;10.02;;;7.10;;
22924;SDS011;11628;51.072;3.712;2023-03-01T11:01:06;8.95;;;7.07;;
22924;SDS011;11628;51.072;3.712;2023-03-01T11:13:56;7.22;;;6.50;;
22924;SDS011;11628;51.072;3.712;2023-03-01T11:16:34;7.10;;;6.25;;
22924;SDS011;11628;51.072;3.712;2023-03-01T11:21:41;10.50;;;7.10;;
22924;SDS011;11628;51.072;3.712;2023-03-01T11:24:42;6.35;;;5.40;;
22924;SDS011;11628;51.072;3.712;2023-03-01T11:27:16;19.05;;;14.13;;
22924;SDS011;11628;51.072;3.712;2023-03-01T11:29:46;5.60;;;4.70;;
22924;SDS011;11628;51.072;3.712;2023-03-01T11:32:17;6.13;;;5.30;;
22924;SDS011;11628;51.072;3.712;2023-03-01T11:34:55;6.35;;;5.75;;
22924;SDS011;11628;51.072;3.712;2023-03-01T11:37:38;6.22;;;5.63;;
22924;SDS011;11628;51.072;3.712;2023-03-01T11:40:29;6.75;;;5.40;;
22924;SDS011;11628;51.072;3.712;2023-03-01T11:51:14;6.43;;;5.70;;
22924;SDS011;11628;51.072;3.712;2023-03-01T11:59:16;6.35;;;5.75;;
22924;SDS011;11628;51.072;3.712;2023-03-01T12:02:16;7.38;;;5.43;;
22924;SDS011;11628;51.072;3.712;2023-03-01T12:05:24;6.82;;;5.45;;
22924;SDS011;11628;51.072;3.712;2023-03-01T12:08:17;5.63;;;5.07;;
22924;SDS011;11628;51.072;3.712;2023-03-01T12:19:08;5.50;;;4.80;;
22924;SDS011;11628;51.072;3.712;2023-03-01T12:24:39;7.43;;;5.40;;
22924;SDS011;11628;51.072;3.712;2023-03-01T12:46:35;7.80;;;5.50;;
22924;SDS011;11628;51.072;3.712;2023-03-01T12:49:10;6.97;;;4.82;;
22924;SDS011;11628;51.072;3.712;2023-03-01T12:51:39;7.55;;;5.10;;
22924;SDS011;11628;51.072;3.712;2023-03-01T12:54:15;8.23;;;6.15;;
22924;SDS011;11628;51.072;3.712;2023-03-01T12:59:20;6.20;;;5.50;;
22924;SDS011;11628;51.072;3.712;2023-03-01T13:07:19;16.08;;;12.55;;
22924;SDS011;11628;51.072;3.712;2023-03-01T13:13:00;9.18;;;5.80;;
22924;SDS011;11628;51.072;3.712;2023-03-01T13:15:29;6.18;;;5.57;;
22924;SDS011;11628;51.072;3.712;2023-03-01T13:18:00;7.43;;;6.07;;
22924;SDS011;11628;51.072;3.712;2023-03-01T13:33:57;8.40;;;5.93;;
22924;SDS011;11628;51.072;3.712;2023-03-01T13:42:25;7.80;;;5.93;;
22924;SDS011;11628;51.072;3.712;2023-03-01T13:55:03;8.88;;;6.20;;
22924;SDS011;11628;51.072;3.712;2023-03-01T13:57:38;9.00;;;6.32;;
22924;SDS011;11628;51.072;3.712;2023-03-01T14:00:07;10.13;;;6.43;;
22924;SDS011;11628;51.072;3.712;2023-03-01T14:03:04;10.48;;;6.03;;
22924;SDS011;11628;51.072;3.712;2023-03-01T14:05:30;11.73;;;6.88;;
22924;SDS011;11628;51.072;3.712;2023-03-01T14:07:59;10.55;;;6.22;;
22924;SDS011;11628;51.072;3.712;2023-03-01T14:10:26;9.82;;;6.45;;
22924;SDS011;11628;51.072;3.712;2023-03-01T14:13:12;7.97;;;6.55;;
22924;SDS011;11628;51.072;3.712;2023-03-01T14:15:45;10.27;;;6.60;;
22924;SDS011;11628;51.072;3.712;2023-03-01T14:21:27;12.85;;;7.95;;
22924;SDS011;11628;51.072;3.712;2023-03-01T14:23:54;10.55;;;7.53;;
22924;SDS011;11628;51.072;3.712;2023-03-01T14:26:20;13.25;;;8.30;;
22924;SDS011;11628;51.072;3.712;2023-03-01T14:28:47;12.27;;;8.75;;
22924;SDS011;11628;51.072;3.712;2023-03-01T14:31:31;10.10;;;6.72;;
22924;SDS011;11628;51.072;3.712;2023-03-01T14:33:59;9.50;;;6.00;;
22924;SDS011;11628;51.072;3.712;2023-03-01T14:36:26;8.23;;;5.70;;
22924;SDS011;11628;51.072;3.712;2023-03-01T14:38:53;7.07;;;5.45;;
22924;SDS011;11628;51.072;3.712;2023-03-01T14:41:24;11.73;;;6.40;;
22924;SDS011;11628;51.072;3.712;2023-03-01T14:43:55;9.68;;;5.95;;
22924;SDS011;11628;51.072;3.712;2023-03-01T14:46:30;8.07;;;5.60;;
22924;SDS011;11628;51.072;3.712;2023-03-01T14:51:30;8.18;;;6.40;;
22924;SDS011;11628;51.072;3.712;2023-03-01T14:54:01;9.40;;;6.60;;
22924;SDS011;11628;51.072;3.712;2023-03-01T14:56:27;10.07;;;6.43;;
22924;SDS011;11628;51.072;3.712;2023-03-01T14:59:09;9.52;;;6.55;;
22924;SDS011;11628;51.072;3.712;2023-03-01T15:01:36;8.13;;;5.70;;
22924;SDS011;11628;51.072;3.712;2023-03-01T15:04:02;10.30;;;6.20;;
22924;SDS011;11628;51.072;3.712;2023-03-01T15:06:28;8.05;;;5.82;;
22924;SDS011;11628;51.072;3.712;2023-03-01T15:08:56;10.75;;;6.03;;
22924;SDS011;11628;51.072;3.712;2023-03-01T15:11:30;8.95;;;6.18;;
22924;SDS011;11628;51.072;3.712;2023-03-01T15:13:57;7.50;;;5.85;;
22924;SDS011;11628;51.072;3.712;2023-03-01T15:16:30;7.50;;;6.05;;
22924;SDS011;11628;51.072;3.712;2023-03-01T15:19:04;7.53;;;6.40;;
22924;SDS011;11628;51.072;3.712;2023-03-01T15:21:37;7.28;;;5.93;;
22924;SDS011;11628;51.072;3.712;2023-03-01T15:24:15;10.98;;;5.80;;
22924;SDS011;11628;51.072;3.712;2023-03-01T15:26:50;8.38;;;6.15;;
22924;SDS011;11628;51.072;3.712;2023-03-01T15:29:27;8.98;;;5.57;;
22924;SDS011;11628;51.072;3.712;2023-03-01T15:32:03;7.55;;;6.00;;
22924;SDS011;11628;51.072;3.712;2023-03-01T15:34:49;6.97;;;5.90;;
22924;SDS011;11628;51.072;3.712;2023-03-01T15:39:59;7.60;;;6.22;;
22924;SDS011;11628;51.072;3.712;2023-03-01T15:47:40;10.85;;;6.60;;
22924;SDS011;11628;51.072;3.712;2023-03-01T15:50:27;8.10;;;6.77;;
22924;SDS011;11628;51.072;3.712;2023-03-01T15:52:55;13.50;;;6.78;;
22924;SDS011;11628;51.072;3.712;2023-03-01T15:58:00;10.20;;;7.38;;
22924;SDS011;11628;51.072;3.712;2023-03-01T16:00:34;9.48;;;6.70;;
22924;SDS011;11628;51.072;3.712;2023-03-01T16:03:00;9.55;;;7.18;;
22924;SDS011;11628;51.072;3.712;2023-03-01T16:05:27;8.88;;;7.10;;
22924;SDS011;11628;51.072;3.712;2023-03-01T16:07:55;24.05;;;8.95;;
22924;SDS011;11628;51.072;3.712;2023-03-01T16:10:21;10.27;;;7.22;;
22924;SDS011;11628;51.072;3.712;2023-03-01T16:12:48;8.68;;;7.78;;
22924;SDS011;11628;51.072;3.712;2023-03-01T16:15:20;11.98;;;7.85;;
22924;SDS011;11628;51.072;3.712;2023-03-01T16:17:48;9.20;;;7.53;;
22924;SDS011;11628;51.072;3.712;2023-03-01T16:20:14;11.32;;;7.43;;
22924;SDS011;11628;51.072;3.712;2023-03-01T16:22:41;10.73;;;8.50;;
22924;SDS011;11628;51.072;3.712;2023-03-01T16:25:08;12.93;;;8.10;;
22924;SDS011;11628;51.072;3.712;2023-03-01T16:27:35;9.48;;;8.07;;
22924;SDS011;11628;51.072;3.712;2023-03-01T16:30:01;13.02;;;8.20;;
22924;SDS011;11628;51.072;3.712;2023-03-01T16:32:27;10.68;;;7.80;;
22924;SDS011;11628;51.072;3.712;2023-03-01T16:34:53;12.50;;;8.20;;
22924;SDS011;11628;51.072;3.712;2023-03-01T16:37:18;11.32;;;7.28;;
22924;SDS011;11628;51.072;3.712;2023-03-01T16:39:44;10.02;;;7.85;;
22924;SDS011;11628;51.072;3.712;2023-03-01T16:42:10;10.43;;;7.57;;
22924;SDS011;11628;51.072;3.712;2023-03-01T16:44:35;14.07;;;8.02;;
22924;SDS011;11628;51.072;3.712;2023-03-01T16:47:01;11.68;;;7.97;;
22924;SDS011;11628;51.072;3.712;2023-03-01T16:49:27;10.35;;;8.15;;
22924;SDS011;11628;51.072;3.712;2023-03-01T16:51:55;14.13;;;9.60;;
22924;SDS011;11628;51.072;3.712;2023-03-01T16:54:21;13.55;;;7.97;;
22924;SDS011;11628;51.072;3.712;2023-03-01T16:56:47;15.45;;;8.02;;
22924;SDS011;11628;51.072;3.712;2023-03-01T16:59:13;8.85;;;7.80;;
22924;SDS011;11628;51.072;3.712;2023-03-01T17:01:38;9.95;;;8.15;;
22924;SDS011;11628;51.072;3.712;2023-03-01T17:04:06;12.18;;;8.15;;
22924;SDS011;11628;51.072;3.712;2023-03-01T17:06:35;11.73;;;9.02;;
22924;SDS011;11628;51.072;3.712;2023-03-01T17:09:00;11.38;;;8.35;;